sensor_id;sensor_type;location;lat;lon;timestamp;P1;durP1;ratioP1;P2;durP2;ratioP2
38557;SDS011;24333;42.626;23.308;2023-11-19T06:52:45;7.03;;;2.03;;
38557;SDS011;24333;42.626;23.308;2023-11-19T06:55:12;4.57;;;2.05;;
38557;SDS011;24333;42.626;23.308;2023-11-19T10:28:16;3.55;;;1.75;;
38557;SDS011;24333;42.626;23.308;2023-11-19T10:30:42;3.95;;;2.08;;
38557;SDS011;24333;42.626;23.308;2023-11-19T11:04:45;6.60;;;2.10;;
38557;SDS011;24333;42.626;23.308;2023-11-19T11:08:03;3.00;;;1.73;;
38557;SDS011;24333;42.626;23.308;2023-11-19T11:10:42;6.38;;;1.92;;
38557;SDS011;24333;42.626;23.308;2023-11-19T16:44:55;30.75;;;12.00;;
38557;SDS011;24333;42.626;23.308;2023-11-19T16:47:34;31.05;;;11.27;;
38557;SDS011;24333;42.626;23.308;2023-11-19T16:50:31;41.00;;;11.88;;
38557;SDS011;24333;42.626;23.308;2023-11-19T17:17:21;89.38;;;36.58;;
38557;SDS011;24333;42.626;23.308;2023-11-19T17:19:59;30.55;;;11.65;;
38557;SDS011;24333;42.626;23.308;2023-11-19T17:22:47;36.28;;;11.50;;
38557;SDS011;24333;42.626;23.308;2023-11-19T17:25:43;37.13;;;18.23;;
38557;SDS011;24333;42.626;23.308;2023-11-19T17:28:17;47.47;;;19.98;;
38557;SDS011;24333;42.626;23.308;2023-11-19T17:31:18;45.42;;;11.75;;
38557;SDS011;24333;42.626;23.308;2023-11-19T17:34:00;35.45;;;14.90;;
38557;SDS011;24333;42.626;23.308;2023-11-19T17:37:04;56.08;;;16.48;;
38557;SDS011;24333;42.626;23.308;2023-11-19T17:39:30;35.42;;;12.55;;
38557;SDS011;24333;42.626;23.308;2023-11-19T17:41:55;30.83;;;10.02;;
38557;SDS011;24333;42.626;23.308;2023-11-19T17:44:23;22.77;;;6.90;;
38557;SDS011;24333;42.626;23.308;2023-11-19T17:46:51;23.25;;;8.05;;
38557;SDS011;24333;42.626;23.308;2023-11-19T19:51:30;0.40;;;0.30;;
38557;SDS011;24333;42.626;23.308;2023-11-19T19:54:05;0.90;;;0.50;;
38557;SDS011;24333;42.626;23.308;2023-11-19T20:12:51;2.15;;;0.60;;
38557;SDS011;24333;42.626;23.308;2023-11-19T20:15:26;1.15;;;0.63;;
38557;SDS011;24333;42.626;23.308;2023-11-19T20:17:52;0.90;;;0.55;;
38557;SDS011;24333;42.626;23.308;2023-11-19T20:20:19;3.88;;;1.20;;
38557;SDS011;24333;42.626;23.308;2023-11-19T20:22:46;0.52;;;0.52;;
38557;SDS011;24333;42.626;23.308;2023-11-19T20:54:05;2.53;;;1.15;;
38557;SDS011;24333;42.626;23.308;2023-11-19T20:56:31;1.00;;;0.52;;
38557;SDS011;24333;42.626;23.308;2023-11-19T20:58:57;0.80;;;0.47;;
38557;SDS011;24333;42.626;23.308;2023-11-19T21:01:22;1.40;;;0.50;;
38557;SDS011;24333;42.626;23.308;2023-11-19T21:03:48;1.35;;;0.63;;
38557;SDS011;24333;42.626;23.308;2023-11-19T21:06:13;1.08;;;0.60;;
38557;SDS011;24333;42.626;23.308;2023-11-19T21:08:41;0.82;;;0.52;;
38557;SDS011;24333;42.626;23.308;2023-11-19T21:11:10;0.55;;;0.55;;
38557;SDS011;24333;42.626;23.308;2023-11-19T21:13:36;0.50;;;0.50;;
38557;SDS011;24333;42.626;23.308;2023-11-19T21:16:04;1.23;;;0.60;;
38557;SDS011;24333;42.626;23.308;2023-11-19T21:18:33;0.90;;;0.65;;
38557;SDS011;24333;42.626;23.308;2023-11-19T21:21:00;0.90;;;0.43;;
38557;SDS011;24333;42.626;23.308;2023-11-19T21:23:25;0.95;;;0.50;;
38557;SDS011;24333;42.626;23.308;2023-11-19T21:25:52;1.17;;;0.57;;
38557;SDS011;24333;42.626;23.308;2023-11-19T21:28:18;1.02;;;0.77;;
38557;SDS011;24333;42.626;23.308;2023-11-19T21:30:43;4.97;;;1.73;;
38557;SDS011;24333;42.626;23.308;2023-11-19T21:33:10;4.10;;;1.52;;
38557;SDS011;24333;42.626;23.308;2023-11-19T21:35:37;1.52;;;1.02;;
38557;SDS011;24333;42.626;23.308;2023-11-19T21:38:02;0.50;;;0.50;;
38557;SDS011;24333;42.626;23.308;2023-11-19T21:40:28;0.40;;;0.40;;
38557;SDS011;24333;42.626;23.308;2023-11-19T21:42:53;0.57;;;0.40;;
38557;SDS011;24333;42.626;23.308;2023-11-19T21:45:18;1.48;;;0.93;;
38557;SDS011;24333;42.626;23.308;2023-11-19T21:47:44;2.90;;;0.65;;
38557;SDS011;24333;42.626;23.308;2023-11-19T21:50:09;1.25;;;0.70;;
38557;SDS011;24333;42.626;23.308;2023-11-19T21:52:35;1.17;;;0.60;;
38557;SDS011;24333;42.626;23.308;2023-11-19T21:55:01;2.28;;;0.85;;
38557;SDS011;24333;42.626;23.308;2023-11-19T21:57:28;1.35;;;0.80;;
38557;SDS011;24333;42.626;23.308;2023-11-19T21:59:54;4.07;;;1.15;;
38557;SDS011;24333;42.626;23.308;2023-11-19T22:02:22;4.82;;;0.90;;
38557;SDS011;24333;42.626;23.308;2023-11-19T22:04:48;1.67;;;1.08;;
38557;SDS011;24333;42.626;23.308;2023-11-19T22:07:14;0.95;;;0.70;;
38557;SDS011;24333;42.626;23.308;2023-11-19T22:09:40;0.50;;;0.50;;
38557;SDS011;24333;42.626;23.308;2023-11-19T22:12:08;1.98;;;0.70;;
38557;SDS011;24333;42.626;23.308;2023-11-19T22:14:36;0.90;;;0.60;;
38557;SDS011;24333;42.626;23.308;2023-11-19T22:17:02;1.15;;;0.60;;
38557;SDS011;24333;42.626;23.308;2023-11-19T22:19:28;1.88;;;0.50;;
38557;SDS011;24333;42.626;23.308;2023-11-19T22:21:54;1.27;;;0.50;;
38557;SDS011;24333;42.626;23.308;2023-11-19T22:24:20;0.63;;;0.40;;
38557;SDS011;24333;42.626;23.308;2023-11-19T22:26:45;0.43;;;0.40;;
38557;SDS011;24333;42.626;23.308;2023-11-19T22:29:11;0.63;;;0.30;;
38557;SDS011;24333;42.626;23.308;2023-11-19T22:31:36;1.02;;;0.50;;
38557;SDS011;24333;42.626;23.308;2023-11-19T22:34:03;0.38;;;0.38;;
38557;SDS011;24333;42.626;23.308;2023-11-19T22:36:29;1.70;;;0.60;;
38557;SDS011;24333;42.626;23.308;2023-11-19T22:38:54;1.60;;;0.50;;
38557;SDS011;24333;42.626;23.308;2023-11-19T22:41:21;0.55;;;0.45;;
38557;SDS011;24333;42.626;23.308;2023-11-19T22:43:47;0.70;;;0.50;;
38557;SDS011;24333;42.626;23.308;2023-11-19T22:46:12;1.75;;;0.70;;
38557;SDS011;24333;42.626;23.308;2023-11-19T22:48:38;0.60;;;0.50;;
38557;SDS011;24333;42.626;23.308;2023-11-19T22:51:03;1.98;;;0.60;;
38557;SDS011;24333;42.626;23.308;2023-11-19T22:53:30;1.00;;;0.50;;
38557;SDS011;24333;42.626;23.308;2023-11-19T22:55:55;1.05;;;0.50;;
38557;SDS011;24333;42.626;23.308;2023-11-19T22:58:21;0.90;;;0.60;;
38557;SDS011;24333;42.626;23.308;2023-11-19T23:00:46;1.30;;;0.70;;
38557;SDS011;24333;42.626;23.308;2023-11-19T23:03:12;2.55;;;0.70;;
38557;SDS011;24333;42.626;23.308;2023-11-19T23:05:37;1.00;;;0.70;;
38557;SDS011;24333;42.626;23.308;2023-11-19T23:08:03;1.10;;;0.60;;
38557;SDS011;24333;42.626;23.308;2023-11-19T23:10:28;0.30;;;0.30;;
38557;SDS011;24333;42.626;23.308;2023-11-19T23:12:54;1.58;;;0.70;;
38557;SDS011;24333;42.626;23.308;2023-11-19T23:15:22;1.55;;;0.60;;
38557;SDS011;24333;42.626;23.308;2023-11-19T23:17:50;1.48;;;0.60;;
38557;SDS011;24333;42.626;23.308;2023-11-19T23:20:15;0.40;;;0.30;;
38557;SDS011;24333;42.626;23.308;2023-11-19T23:22:41;0.80;;;0.50;;
38557;SDS011;24333;42.626;23.308;2023-11-19T23:25:07;1.10;;;0.60;;
38557;SDS011;24333;42.626;23.308;2023-11-19T23:27:34;0.55;;;0.40;;
38557;SDS011;24333;42.626;23.308;2023-11-19T23:30:00;0.88;;;0.55;;
38557;SDS011;24333;42.626;23.308;2023-11-19T23:32:26;1.02;;;0.50;;
38557;SDS011;24333;42.626;23.308;2023-11-19T23:34:51;1.02;;;0.40;;
38557;SDS011;24333;42.626;23.308;2023-11-19T23:37:17;0.85;;;0.50;;
38557;SDS011;24333;42.626;23.308;2023-11-19T23:39:42;0.90;;;0.52;;
38557;SDS011;24333;42.626;23.308;2023-11-19T23:42:08;0.80;;;0.60;;
38557;SDS011;24333;42.626;23.308;2023-11-19T23:44:33;0.60;;;0.40;;
38557;SDS011;24333;42.626;23.308;2023-11-19T23:47:00;0.47;;;0.40;;
38557;SDS011;24333;42.626;23.308;2023-11-19T23:49:26;0.63;;;0.60;;
38557;SDS011;24333;42.626;23.308;2023-11-19T23:51:51;1.27;;;0.40;;
38557;SDS011;24333;42.626;23.308;2023-11-19T23:54:17;1.05;;;0.40;;
38557;SDS011;24333;42.626;23.308;2023-11-19T23:56:42;0.50;;;0.30;;
38557;SDS011;24333;42.626;23.308;2023-11-19T23:59:08;0.70;;;0.40;;
